C62

Kendallville Municipal Airport

Kendallville, Indiana, USA
METAR KC62 212235Z AUTO 08006KT 10SM SCT016 SCT060 OVC085 22/17 A2973 RMK AO2 T02260180
Observed Flight Rules
Jul-21 @ 22:35 UTC (12 minutes ago) Visual Flight Rules
Wind Visibility Clouds
80° at 6 knots 10 miles
  • Scattered at 1,600' AGL
  • Scattered at 6,000' AGL
  • Overcast at 8,500' AGL
Temperatures Readings
Current 23°C / 73°F
Dewpoint 18°C / 64°F
Humidity 74%
Altimeter 29.73" Hg
Pressure 1007 hPa
Elevation 306
METAR KC62 212235Z AUTO 08006KT 10SM SCT016 SCT060 OVC085 22/17 A2973 RMK AO2 T02260180
Observed Flight Rules
Jul-21 @ 22:35 UTC
(12 minutes ago)
VFR
Wind Visibility
80° at 6 knots 10 miles
Clouds
  • Scattered at 1,600' AGL
  • Scattered at 6,000' AGL
  • Overcast at 8,500' AGL
Temperature Dewpoint
23°C / 73°F 18°C / 64°F
Humidity Altimeter Pressure
74% 29.73" Hg 1007 hPa